• Join FlightAware (Why Join?)
  • Login
  • US Flag 
08:31AM EDT


 

Airport Tracker/Info


-or-


 

Live Flight TrackerFlight Track Log ✈ ASQ6151 ✈ 30-May-2013 ✈ KFAR - KORD

Flight Track Log - Related Links

Times and Time Zones

All times are in EDT time to prevent confusion due to time zone crossing. See the ASQ6151 flight status page for this flight to view local times or setup timezone preferences in your user account.

Time Position Orientation Groundspeed Altitude Reporting Facility
EDT Latitude Longitude Course Direction KTS MPH feet Rate Location/Type
12:54PM 46.8894 -96.8158 121° Southeast 166 191 2,200  Level Minneapolis Center
12:55PM 46.8458 -96.7706 145° Southeast 189 217 4,600 2,220 Climbing Minneapolis Center
12:56PM 46.8381 -96.6736 97° East 234 269 6,900 2,460 Climbing Minneapolis Center
12:57PM 46.6708 -96.6749 126° Southeast  Level FlightAware Approximate
12:57PM 46.8364 -96.5558 91° East 275 316 9,800  Level Minneapolis Center
12:58PM 46.6240 -96.5814 126° Southeast  Level FlightAware Approximate
12:58PM 46.8383 -96.4236 89° East 315 362 11,100  Level Minneapolis Center
12:59PM 46.5820 -96.4833 121° Southeast  Level FlightAware Approximate
12:59PM 46.8150 -96.2833 104° East 347 399 12,700  Level Minneapolis Center
01:00PM 46.7736 -96.1467 114° Southeast 353 406 14,600 1,680 Climbing Minneapolis Center
01:01PM 46.7333 -96.0169 114° Southeast 363 418 16,200 1,440 Climbing Minneapolis Center
01:02PM 46.6839 -95.8786 117° Southeast 370 426 17,600 1,560 Climbing Minneapolis Center
01:04PM 46.6258 -95.7800 131° Southeast 364 419 19,500 1,860 Climbing Minneapolis Center
01:05PM 46.5461 -95.6458 131° Southeast 366 421 21,500 1,680 Climbing Minneapolis Center
01:06PM 46.4808 -95.5353 131° Southeast 363 418 23,000 1,500 Climbing Minneapolis Center
01:07PM 46.4111 -95.4194 131° Southeast 360 414 24,600 1,500 Climbing Minneapolis Center
01:08PM 46.3453 -95.3092 131° Southeast 361 415 26,100 1,440 Climbing Minneapolis Center
01:09PM 46.2803 -95.2006 131° Southeast 360 414 27,600 1,680 Climbing Minneapolis Center
01:10PM 46.2158 -95.0925 131° Southeast 358 412 29,600 1,680 Climbing Minneapolis Center
01:11PM 46.1469 -94.9797 131° Southeast 350 403 31,100 1,380 Climbing Minneapolis Center
01:12PM 46.0833 -94.8750 131° Southeast 348 400 32,500 1,260 Climbing Minneapolis Center
01:13PM 46.0189 -94.7697 131° Southeast 351 404 33,800 1,200 Climbing Minneapolis Center
01:14PM 45.9428 -94.6442 131° Southeast 349 402 35,000 540 Climbing Minneapolis Center
01:15PM 45.8764 -94.5367 132° Southeast 356 410 35,000  Level Minneapolis Center
01:16PM 45.8033 -94.4194 132° Southeast 382 440 35,000  Level Minneapolis Center
01:17PM 45.7286 -94.2947 131° Southeast 404 465 35,000  Level Minneapolis Center
01:18PM 45.6628 -94.1556 124° Southeast 421 484 35,000  Level Minneapolis Center
01:19PM 45.5958 -94.0164 124° Southeast 425 489 35,000  Level Minneapolis Center
01:20PM 45.5156 -93.8503 125° Southeast 425 489 35,000  Level Minneapolis Center
01:21PM 45.4472 -93.7111 125° Southeast 430 495 35,000  Level Minneapolis Center
01:22PM 45.3803 -93.5725 124° Southeast 428 493 35,000  Level Minneapolis Center
01:23PM 45.3122 -93.4336 125° Southeast 429 494 35,000  Level Minneapolis Center
01:24PM 45.2439 -93.2964 125° Southeast 426 490 35,000  Level Minneapolis Center
01:25PM 45.1758 -93.1586 125° Southeast 425 489 35,000  Level Minneapolis Center
01:26PM 45.0931 -92.9939 125° Southeast 426 490 35,000  Level Minneapolis Center
01:27PM 45.0258 -92.8572 125° Southeast 422 486 35,000  Level Minneapolis Center
01:28PM 44.9586 -92.7247 126° Southeast 415 478 35,000  Level Minneapolis Center
01:29PM 44.8914 -92.5922 126° Southeast 414 476 35,000  Level Minneapolis Center
01:30PM 44.8219 -92.4567 126° Southeast 422 486 35,000  Level Minneapolis Center
01:31PM 44.7528 -92.3228 126° Southeast 423 487 35,000  Level Minneapolis Center
01:32PM 44.6842 -92.1867 125° Southeast 425 489 35,000  Level Minneapolis Center
01:34PM 44.6000 -92.0247 126° Southeast 427 491 35,000  Level Minneapolis Center
01:35PM 44.5014 -91.9322 146° Southeast 424 488 35,000  Level Minneapolis Center
01:36PM 44.4011 -91.8456 148° Southeast 426 490 35,000 -300 Level Minneapolis Center
01:37PM 44.3014 -91.7575 148° Southeast 425 489 34,500 -1,020 Descending Minneapolis Center
01:38PM 44.2306 -91.6214 126° Southeast 441 507 33,000 -1,380 Descending Minneapolis Center
01:39PM 44.1644 -91.4781 123° Southeast 440 506 31,700 -1,020 Descending Minneapolis Center
01:40PM 44.0825 -91.3028 123° Southeast 449 517 31,000 -360 Descending Minneapolis Center
01:41PM 44.0172 -91.1603 122° Southeast 453 521 31,000  Level Minneapolis Center
01:42PM 43.9497 -91.0133 123° Southeast 452 520 31,000  Level Minneapolis Center
01:43PM 43.8833 -90.8703 123° Southeast 448 516 31,000 -540 Level Minneapolis Center
01:44PM 43.8306 -90.7606 124° Southeast 436 502 30,100 -1,920 Descending Chicago Center
01:45PM 43.7639 -90.6203 123° Southeast 436 502 27,700 -2,520 Descending Chicago Center
01:45PM 43.7375 -90.5625 122° Southeast 439 505 26,700 -2,400 Descending Minneapolis Center
01:46PM 43.6708 -90.4217 123° Southeast 440 506 24,500 -1,320 Descending Minneapolis Center
01:47PM 43.6586 -90.2581 96° East 439 505 24,000 -300 Descending Minneapolis Center
01:48PM 43.6619 -90.0986 88° East 429 494 24,000  Level Minneapolis Center
01:49PM 43.6181 -89.9739 116° Southeast 433 498 24,000 -420 Level Chicago Center
01:50PM 43.5386 -89.8531 132° Southeast 424 488 23,300 -780 Descending Chicago Center
01:51PM 43.4453 -89.7644 145° Southeast 410 472 22,400 -1,140 Descending Chicago Center
01:52PM 43.3458 -89.6775 148° Southeast 420 483 21,000 -1,500 Descending Chicago Center
01:53PM 43.2367 -89.5819 147° Southeast 403 464 19,400 -1,560 Descending Chicago Center
01:54PM 43.1461 -89.5022 147° Southeast 390 449 17,800 -1,740 Descending Chicago Center
01:55PM 43.0581 -89.4261 148° Southeast 379 436 15,900 -1,800 Descending Chicago Center
01:56PM 42.9742 -89.3528 147° Southeast 363 418 14,100 -1,500 Descending Chicago Center
01:57PM 42.8922 -89.2394 135° Southeast 361 415 12,900 -600 Descending Chicago Center
01:58PM 42.8231 -89.1381 133° Southeast 365 420 12,900  Level Chicago Center
01:59PM 42.7547 -89.0400 133° Southeast 361 415 12,900  Level Chicago Center
02:00PM 42.6828 -88.9378 134° Southeast 371 427 12,900  Level Chicago Center
02:01PM 42.6111 -88.8353 134° Southeast 374 430 12,900 -660 Level Chicago Center
02:02PM 42.5431 -88.7364 133° Southeast 360 414 11,600 -1,380 Descending Chicago Center
02:03PM 42.4725 -88.6378 134° Southeast 318 366 10,100 -1,260 Descending Chicago Center
02:04PM 42.4225 -88.5656 133° Southeast 275 316 9,000 -600 Descending Chicago Center
02:05PM 42.3697 -88.4897 133° Southeast 275 316 8,900  Descending Chicago Center
02:06PM 42.3417 -88.3900 111° Southeast 288 331 9,000 -480 Climbing Chicago Center
02:07PM 42.3125 -88.2894 111° Southeast 284 327 8,000 -900 Descending Chicago Center
02:08PM 42.2611 -88.2447 147° Southeast 226 260 7,200 -660 Descending Chicago Center
02:09PM 42.2083 -88.1786 137° Southeast 220 253 6,700 -960 Descending Chicago Center
02:10PM 42.1619 -88.1286 141° Southeast 217 250 5,300 -1,260 Descending Chicago Center
02:11PM 42.1178 -88.0767 139° Southeast 214 246 4,200 -1,200 Descending Chicago Center
02:12PM 42.1000 -88.0667 157° South 200 230 3,800 -1,620 Descending Chicago TRACON